Time;durP1;ratioP1;P1;durP2;ratioP2;P2;SDS_P1;SDS_P2;PMS_P1;PMS_P2;Temp;Humidity;BMP_temperature;BMP_pressure;BME280_temperature;BME280_humidity;BME280_pressure;Samples;Min_cycle;Max_cycle;Signal;HPM_P1;HPM_P2
2022/04/13 00:00:31;;;;;;;22.45;11.70;;;;;;;;;;6173303;23;20028;-50
2022/04/13 00:02:56;;;;;;;31.27;13.02;;;;;;;;;;6172482;23;20009;-49
2022/04/13 00:05:22;;;;;;;29.33;12.35;;;;;;;;;;6174113;23;20020;-50
2022/04/13 00:07:47;;;;;;;30.77;11.93;;;;;;;;;;6174282;23;20028;-51
2022/04/13 00:10:12;;;;;;;27.30;11.48;;;;;;;;;;6174396;23;20049;-54
2022/04/13 00:12:38;;;;;;;30.80;13.10;;;;;;;;;;6172723;23;20603;-52
2022/04/13 00:15:04;;;;;;;40.08;12.93;;;;;;;;;;6174789;23;20025;-52
2022/04/13 00:17:29;;;;;;;24.33;12.70;;;;;;;;;;6173111;23;20020;-49
2022/04/13 00:19:55;;;;;;;21.38;12.25;;;;;;;;;;6174712;23;20016;-51
2022/04/13 00:22:20;;;;;;;29.80;12.82;;;;;;;;;;6170813;23;20016;-49
2022/04/13 00:24:45;;;;;;;32.92;13.02;;;;;;;;;;6175162;23;20005;-51
2022/04/13 00:27:11;;;;;;;29.60;13.68;;;;;;;;;;6171358;23;20021;-51
2022/04/13 00:29:36;;;;;;;25.30;11.63;;;;;;;;;;6174933;23;20009;-53
2022/04/13 00:32:03;;;;;;;25.15;11.88;;;;;;;;;;6172683;23;20399;-51
2022/04/13 00:34:29;;;;;;;27.52;13.13;;;;;;;;;;6174048;23;20040;-54
2022/04/13 00:36:57;;;;;;;23.55;11.63;;;;;;;;;;6172698;23;20009;-52
2022/04/13 00:39:22;;;;;;;22.63;10.32;;;;;;;;;;6174460;23;20337;-52
2022/04/13 00:41:48;;;;;;;22.83;11.60;;;;;;;;;;6171128;23;20032;-52
2022/04/13 00:44:13;;;;;;;23.95;11.05;;;;;;;;;;6173766;23;20023;-52
2022/04/13 00:46:38;;;;;;;30.10;12.95;;;;;;;;;;6171787;23;20683;-54
2022/04/13 00:49:05;;;;;;;30.85;11.30;;;;;;;;;;6174433;23;20067;-52
2022/04/13 00:51:31;;;;;;;26.45;10.48;;;;;;;;;;6170890;23;20490;-51
2022/04/13 00:53:56;;;;;;;18.92;10.68;;;;;;;;;;6174182;23;20001;-52
2022/04/13 00:56:24;;;;;;;21.05;11.05;;;;;;;;;;6171547;23;20498;-53
2022/04/13 00:58:53;;;;;;;24.25;10.27;;;;;;;;;;6175034;23;20060;-50
2022/04/13 01:01:20;;;;;;;27.70;10.13;;;;;;;;;;6170366;23;20642;-49
2022/04/13 01:03:46;;;;;;;24.70;10.45;;;;;;;;;;6174597;23;20032;-54
2022/04/13 01:06:12;;;;;;;24.55;11.85;;;;;;;;;;6171877;23;20032;-54
2022/04/13 01:08:38;;;;;;;24.55;10.65;;;;;;;;;;6175330;23;20036;-53
2022/04/13 01:11:03;;;;;;;28.13;10.88;;;;;;;;;;6163642;23;20009;-51
2022/04/13 01:13:28;;;;;;;25.13;10.25;;;;;;;;;;6145808;23;20056;-52
2022/04/13 01:15:54;;;;;;;27.77;10.27;;;;;;;;;;6173561;23;20048;-53
2022/04/13 01:18:19;;;;;;;26.45;9.65;;;;;;;;;;6171907;23;20084;-55
2022/04/13 01:20:48;;;;;;;27.05;9.30;;;;;;;;;;6172665;23;20056;-52
2022/04/13 01:23:14;;;;;;;23.58;10.75;;;;;;;;;;6173361;23;20013;-53
2022/04/13 01:25:46;;;;;;;32.60;11.10;;;;;;;;;;6171878;23;20065;-49
2022/04/13 01:28:12;;;;;;;27.20;11.00;;;;;;;;;;6172640;23;20088;-53
2022/04/13 01:30:37;;;;;;;25.50;10.63;;;;;;;;;;6171118;23;20028;-51
2022/04/13 01:33:03;;;;;;;25.98;11.35;;;;;;;;;;6174378;23;20024;-51
2022/04/13 01:35:28;;;;;;;24.77;11.93;;;;;;;;;;6169605;23;20591;-49
2022/04/13 01:37:54;;;;;;;24.63;11.38;;;;;;;;;;6174825;23;20017;-53
2022/04/13 01:40:19;;;;;;;29.35;12.45;;;;;;;;;;6170918;23;20013;-53
2022/04/13 01:42:47;;;;;;;30.38;11.48;;;;;;;;;;6174992;23;20110;-54
2022/04/13 01:45:19;;;;;;;31.10;12.30;;;;;;;;;;6174756;23;20005;-52
2022/04/13 01:47:44;;;;;;;40.58;14.10;;;;;;;;;;6171599;23;20021;-48
2022/04/13 01:50:10;;;;;;;29.77;11.73;;;;;;;;;;6174773;23;20032;-52
2022/04/13 01:52:35;;;;;;;32.90;13.48;;;;;;;;;;6172300;23;20435;-50
2022/04/13 01:55:00;;;;;;;29.45;12.20;;;;;;;;;;6173788;23;20068;-50
2022/04/13 01:57:25;;;;;;;32.03;13.00;;;;;;;;;;6173144;23;20455;-52
2022/04/13 01:59:51;;;;;;;25.75;12.85;;;;;;;;;;6174546;23;20515;-50
2022/04/13 02:02:16;;;;;;;32.72;12.82;;;;;;;;;;6174924;23;20627;-52
2022/04/13 02:04:41;;;;;;;32.90;13.10;;;;;;;;;;6174888;23;20017;-51
2022/04/13 02:07:07;;;;;;;30.35;12.85;;;;;;;;;;6176339;23;20044;-52
2022/04/13 02:09:32;;;;;;;29.83;11.93;;;;;;;;;;6173441;23;20187;-53
2022/04/13 02:11:57;;;;;;;29.25;12.50;;;;;;;;;;6175967;23;20013;-50
2022/04/13 02:14:22;;;;;;;27.58;11.25;;;;;;;;;;6174574;23;20029;-49
2022/04/13 02:16:47;;;;;;;27.52;13.10;;;;;;;;;;6176081;23;20009;-51
2022/04/13 02:19:13;;;;;;;29.45;12.30;;;;;;;;;;6175297;23;20253;-53
2022/04/13 02:21:39;;;;;;;30.92;13.48;;;;;;;;;;6173685;23;20033;-49
2022/04/13 02:24:05;;;;;;;31.38;11.73;;;;;;;;;;6175290;23;20009;-49
2022/04/13 02:26:30;;;;;;;35.17;13.38;;;;;;;;;;6174531;23;20024;-52
2022/04/13 02:28:55;;;;;;;33.17;12.15;;;;;;;;;;6173283;23;20497;-49
2022/04/13 02:31:21;;;;;;;27.67;14.05;;;;;;;;;;6172645;23;20009;-52
2022/04/13 02:33:47;;;;;;;31.60;13.27;;;;;;;;;;6175008;23;20009;-49
2022/04/13 02:36:13;;;;;;;29.42;12.00;;;;;;;;;;6175748;23;20033;-52
2022/04/13 02:38:38;;;;;;;31.63;12.38;;;;;;;;;;6173129;23;20028;-52
2022/04/13 02:41:04;;;;;;;26.52;12.52;;;;;;;;;;6175200;23;20013;-52
2022/04/13 02:43:29;;;;;;;28.17;11.60;;;;;;;;;;6173718;23;20020;-51
2022/04/13 02:45:56;;;;;;;27.48;12.80;;;;;;;;;;6176022;23;20021;-52
2022/04/13 02:48:21;;;;;;;30.90;12.10;;;;;;;;;;6174249;23;20020;-51
2022/04/13 02:50:48;;;;;;;33.63;13.77;;;;;;;;;;6169386;23;20009;-53
2022/04/13 02:53:13;;;;;;;22.38;11.18;;;;;;;;;;6174094;23;20100;-52
2022/04/13 02:55:39;;;;;;;22.45;11.52;;;;;;;;;;6174739;23;20017;-53
2022/04/13 02:58:05;;;;;;;30.95;12.57;;;;;;;;;;6175424;23;20020;-54
2022/04/13 03:00:30;;;;;;;31.55;11.18;;;;;;;;;;6173372;23;20482;-52
2022/04/13 03:02:55;;;;;;;27.10;13.10;;;;;;;;;;6174725;23;20012;-51
2022/04/13 03:05:21;;;;;;;27.27;11.73;;;;;;;;;;6176176;23;20024;-49
2022/04/13 03:07:46;;;;;;;23.85;12.07;;;;;;;;;;6174864;23;20020;-51
2022/04/13 03:10:11;;;;;;;33.45;12.05;;;;;;;;;;6174742;23;20013;-53
2022/04/13 03:12:37;;;;;;;27.77;12.60;;;;;;;;;;6174044;23;20447;-52
2022/04/13 03:15:05;;;;;;;32.78;12.13;;;;;;;;;;6175168;23;20108;-50
2022/04/13 03:17:31;;;;;;;28.25;11.80;;;;;;;;;;6173867;23;20020;-51
2022/04/13 03:19:56;;;;;;;25.40;11.82;;;;;;;;;;6174814;23;20009;-53
2022/04/13 03:22:25;;;;;;;23.13;11.63;;;;;;;;;;6174604;23;20017;-53
2022/04/13 03:24:53;;;;;;;30.83;10.77;;;;;;;;;;6174047;23;20130;-50
2022/04/13 03:27:19;;;;;;;26.05;11.43;;;;;;;;;;6173557;23;20101;-52
2022/04/13 03:29:44;;;;;;;26.63;11.30;;;;;;;;;;6176033;23;20728;-52
2022/04/13 03:32:09;;;;;;;33.22;13.40;;;;;;;;;;6174792;23;20028;-53
2022/04/13 03:34:35;;;;;;;30.20;12.95;;;;;;;;;;6173776;23;20028;-50
2022/04/13 03:37:00;;;;;;;36.38;11.40;;;;;;;;;;6174480;23;20017;-49
2022/04/13 03:39:25;;;;;;;30.77;10.35;;;;;;;;;;6175158;23;20024;-53
2022/04/13 03:41:51;;;;;;;23.70;11.88;;;;;;;;;;6173969;23;20009;-50
2022/04/13 03:44:16;;;;;;;19.10;10.38;;;;;;;;;;6173869;23;20085;-49
2022/04/13 03:46:41;;;;;;;32.58;12.25;;;;;;;;;;6174089;23;20024;-53
2022/04/13 03:49:08;;;;;;;25.33;10.27;;;;;;;;;;6172829;23;20010;-52
2022/04/13 03:51:33;;;;;;;22.73;11.13;;;;;;;;;;6173792;23;20021;-51
2022/04/13 03:53:58;;;;;;;35.90;11.55;;;;;;;;;;6174700;23;20499;-51
2022/04/13 03:56:23;;;;;;;23.35;10.95;;;;;;;;;;6173912;23;20021;-49
2022/04/13 03:58:49;;;;;;;25.75;11.20;;;;;;;;;;6174812;23;20081;-48
2022/04/13 04:01:15;;;;;;;21.50;10.95;;;;;;;;;;6171803;23;20064;-53
2022/04/13 04:03:40;;;;;;;24.20;10.90;;;;;;;;;;6175574;23;20522;-51
2022/04/13 04:06:05;;;;;;;25.63;9.90;;;;;;;;;;6173029;23;20036;-54
2022/04/13 04:08:35;;;;;;;35.05;10.27;;;;;;;;;;6173681;23;20028;-50
2022/04/13 04:11:00;;;;;;;;;;;;;;;;;;6175439;23;20040;-51
2022/04/13 04:13:25;;;;;;;25.05;9.00;;;;;;;;;;6172604;23;19987;-51
2022/04/13 04:15:50;;;;;;;23.25;9.95;;;;;;;;;;6174757;23;20029;-54
2022/04/13 04:18:16;;;;;;;14.77;8.30;;;;;;;;;;6173938;23;20016;-51
2022/04/13 04:20:41;;;;;;;22.40;8.52;;;;;;;;;;6173977;23;20013;-52
2022/04/13 04:23:07;;;;;;;25.88;9.38;;;;;;;;;;6175372;23;20333;-51
2022/04/13 04:25:32;;;;;;;26.83;9.82;;;;;;;;;;6171814;23;20017;-53
2022/04/13 04:27:57;;;;;;;17.20;7.32;;;;;;;;;;6175273;23;20098;-51
2022/04/13 04:30:23;;;;;;;22.52;9.00;;;;;;;;;;6170147;23;20514;-53
2022/04/13 04:32:48;;;;;;;24.60;9.23;;;;;;;;;;6148739;23;20017;-51
2022/04/13 04:35:13;;;;;;;30.10;9.57;;;;;;;;;;6173246;23;20828;-52
2022/04/13 04:37:39;;;;;;;27.77;10.55;;;;;;;;;;6174440;23;20024;-51
2022/04/13 04:40:04;;;;;;;26.83;8.68;;;;;;;;;;6174424;23;20009;-52
2022/04/13 04:42:30;;;;;;;25.52;9.80;;;;;;;;;;6147616;23;20017;-54
2022/04/13 04:44:59;;;;;;;21.83;8.70;;;;;;;;;;6173462;23;20444;-51
2022/04/13 04:47:24;;;;;;;25.77;8.90;;;;;;;;;;6174369;23;20085;-48
2022/04/13 04:49:50;;;;;;;24.38;9.32;;;;;;;;;;6173481;23;20005;-52
2022/04/13 04:52:15;;;;;;;24.63;9.73;;;;;;;;;;6173168;23;20017;-51
2022/04/13 04:54:40;;;;;;;33.22;10.98;;;;;;;;;;6173845;23;20005;-51
2022/04/13 04:57:06;;;;;;;22.50;10.25;;;;;;;;;;6174157;23;20027;-53
2022/04/13 04:59:31;;;;;;;23.02;10.38;;;;;;;;;;6173085;23;20016;-51
2022/04/13 05:01:56;;;;;;;23.25;10.85;;;;;;;;;;6175178;23;20073;-47
2022/04/13 05:04:21;;;;;;;29.90;10.73;;;;;;;;;;6173522;23;20017;-50
2022/04/13 05:06:47;;;;;;;31.67;10.88;;;;;;;;;;6147834;23;20577;-52
2022/04/13 05:09:12;;;;;;;23.50;10.35;;;;;;;;;;6174050;23;20013;-53
2022/04/13 05:11:37;;;;;;;26.20;11.25;;;;;;;;;;6172912;23;20069;-54
2022/04/13 05:14:03;;;;;;;20.35;10.30;;;;;;;;;;6173513;23;20445;-49
2022/04/13 05:16:28;;;;;;;31.45;10.63;;;;;;;;;;6172952;23;20009;-53
2022/04/13 05:18:53;;;;;;;31.00;11.57;;;;;;;;;;6173735;23;20009;-54
2022/04/13 05:21:19;;;;;;;27.17;11.73;;;;;;;;;;6173156;23;20017;-52
2022/04/13 05:23:44;;;;;;;25.08;11.65;;;;;;;;;;6172599;23;20009;-51
2022/04/13 05:26:09;;;;;;;28.33;11.93;;;;;;;;;;6174564;23;20088;-51
2022/04/13 05:28:35;;;;;;;25.73;10.73;;;;;;;;;;6145256;23;20730;-51
2022/04/13 05:31:00;;;;;;;30.17;13.13;;;;;;;;;;6174444;23;20001;-50
2022/04/13 05:33:25;;;;;;;19.75;9.73;;;;;;;;;;6168868;23;20072;-51
2022/04/13 05:35:51;;;;;;;23.77;10.63;;;;;;;;;;6176223;23;20111;-52
2022/04/13 05:38:16;;;;;;;27.90;11.32;;;;;;;;;;6173331;23;20040;-51
2022/04/13 05:40:41;;;;;;;27.13;10.93;;;;;;;;;;6176561;23;20348;-54
2022/04/13 05:43:07;;;;;;;23.70;10.15;;;;;;;;;;6175154;23;20017;-52
2022/04/13 05:45:32;;;;;;;26.20;11.63;;;;;;;;;;6175647;23;20015;-51
2022/04/13 05:47:58;;;;;;;27.50;10.10;;;;;;;;;;6175013;23;20017;-50
2022/04/13 05:50:23;;;;;;;24.05;11.00;;;;;;;;;;6175589;23;20017;-52
2022/04/13 05:52:48;;;;;;;28.25;11.75;;;;;;;;;;6173903;23;20009;-53
2022/04/13 05:55:13;;;;;;;27.05;11.13;;;;;;;;;;6176069;23;20032;-52
2022/04/13 05:57:39;;;;;;;30.50;12.15;;;;;;;;;;6172632;23;20024;-53
2022/04/13 06:00:05;;;;;;;31.45;10.95;;;;;;;;;;6176354;23;20020;-54
2022/04/13 06:02:30;;;;;;;25.77;10.95;;;;;;;;;;6172189;23;20013;-51
2022/04/13 06:04:55;;;;;;;20.90;10.13;;;;;;;;;;6176754;23;20020;-55
2022/04/13 06:07:21;;;;;;;21.05;10.43;;;;;;;;;;6174011;23;20028;-51
2022/04/13 06:09:46;;;;;;;22.25;10.02;;;;;;;;;;6177189;23;20017;-53
2022/04/13 06:12:11;;;;;;;31.13;12.32;;;;;;;;;;6147311;23;20015;-51
2022/04/13 06:14:36;;;;;;;22.73;11.05;;;;;;;;;;6175068;23;20090;-53
2022/04/13 06:17:02;;;;;;;24.67;11.23;;;;;;;;;;6175230;23;20013;-54
2022/04/13 06:19:27;;;;;;;21.77;11.15;;;;;;;;;;6175700;23;20012;-50
2022/04/13 06:21:52;;;;;;;22.15;10.02;;;;;;;;;;6174287;23;20514;-55
2022/04/13 06:24:17;;;;;;;23.70;10.20;;;;;;;;;;6174145;23;20033;-54
2022/04/13 06:26:43;;;;;;;31.95;12.15;;;;;;;;;;6173709;23;20071;-54
2022/04/13 06:29:08;;;;;;;32.80;12.43;;;;;;;;;;6175324;23;20024;-51
2022/04/13 06:31:34;;;;;;;28.63;12.00;;;;;;;;;;6170770;23;20024;-51
2022/04/13 06:33:59;;;;;;;27.50;9.98;;;;;;;;;;6173286;23;20040;-54
2022/04/13 06:36:25;;;;;;;28.77;10.88;;;;;;;;;;6175425;23;20410;-51
2022/04/13 06:38:50;;;;;;;25.70;11.82;;;;;;;;;;6173855;23;20067;-50
2022/04/13 06:41:15;;;;;;;33.22;11.07;;;;;;;;;;6175310;23;20012;-53
2022/04/13 06:43:41;;;;;;;30.25;11.93;;;;;;;;;;6173928;23;20033;-50
2022/04/13 06:46:06;;;;;;;28.73;10.90;;;;;;;;;;6176240;23;20072;-53
2022/04/13 06:48:32;;;;;;;18.05;9.48;;;;;;;;;;6172751;23;20028;-53
2022/04/13 06:50:57;;;;;;;29.98;11.10;;;;;;;;;;6150101;23;20110;-54
2022/04/13 06:53:23;;;;;;;24.92;9.13;;;;;;;;;;6173318;23;20092;-49
2022/04/13 06:55:48;;;;;;;21.33;9.80;;;;;;;;;;6176028;23;20013;-51
2022/04/13 06:58:14;;;;;;;29.88;10.55;;;;;;;;;;6174350;23;20707;-51
2022/04/13 07:00:39;;;;;;;28.02;9.70;;;;;;;;;;6174832;23;20040;-50
2022/04/13 07:03:04;;;;;;;19.40;9.98;;;;;;;;;;6169461;23;20047;-54
2022/04/13 07:05:30;;;;;;;22.67;12.05;;;;;;;;;;6134753;23;20013;-51
2022/04/13 07:07:56;;;;;;;26.05;11.90;;;;;;;;;;6161930;23;20031;-54
2022/04/13 07:10:21;;;;;;;32.28;10.32;;;;;;;;;;6140483;23;20204;-53
2022/04/13 07:12:46;;;;;;;30.02;9.95;;;;;;;;;;6165279;23;20013;-53
2022/04/13 07:15:12;;;;;;;28.70;11.75;;;;;;;;;;6167223;23;20025;-52
2022/04/13 07:17:37;;;;;;;25.45;10.88;;;;;;;;;;6167652;23;20043;-54
2022/04/13 07:20:03;;;;;;;34.78;9.02;;;;;;;;;;6174539;23;20033;-52
2022/04/13 07:22:28;;;;;;;23.20;8.52;;;;;;;;;;6174304;23;20036;-53
2022/04/13 07:24:53;;;;;;;24.08;10.23;;;;;;;;;;6173283;23;20032;-54
2022/04/13 07:27:19;;;;;;;18.02;8.68;;;;;;;;;;6174213;23;20029;-53
2022/04/13 07:29:44;;;;;;;22.80;7.88;;;;;;;;;;6173034;23;20309;-53
2022/04/13 07:32:09;;;;;;;17.52;8.50;;;;;;;;;;6174920;23;20024;-55
2022/04/13 07:34:36;;;;;;;19.00;7.70;;;;;;;;;;6144270;23;20112;-53
2022/04/13 07:37:02;;;;;;;20.33;7.63;;;;;;;;;;6175326;23;20069;-52
2022/04/13 07:39:27;;;;;;;22.73;6.63;;;;;;;;;;6172424;23;20041;-55
2022/04/13 07:41:52;;;;;;;22.20;6.85;;;;;;;;;;6175003;23;20691;-54
2022/04/13 07:44:18;;;;;;;15.05;6.63;;;;;;;;;;6172010;23;20025;-54
2022/04/13 07:46:43;;;;;;;19.02;7.75;;;;;;;;;;6170848;23;20024;-51
2022/04/13 07:49:09;;;;;;;18.77;6.93;;;;;;;;;;6172747;23;20012;-53
2022/04/13 07:51:34;;;;;;;26.00;8.48;;;;;;;;;;6147386;23;20013;-53
2022/04/13 07:54:01;;;;;;;16.50;7.22;;;;;;;;;;6166093;23;20028;-53
2022/04/13 07:56:27;;;;;;;22.23;8.55;;;;;;;;;;6171181;23;20013;-54
2022/04/13 07:58:52;;;;;;;25.15;8.48;;;;;;;;;;6169831;23;20093;-51
2022/04/13 08:01:17;;;;;;;26.25;9.30;;;;;;;;;;6170213;23;20016;-53
2022/04/13 08:03:42;;;;;;;25.50;8.05;;;;;;;;;;6170705;23;20036;-54
2022/04/13 08:06:10;;;;;;;19.08;8.25;;;;;;;;;;6169704;23;20431;-55
2022/04/13 08:08:35;;;;;;;19.85;7.57;;;;;;;;;;6169327;23;20116;-51
2022/04/13 08:11:00;;;;;;;22.98;8.23;;;;;;;;;;6171113;23;20413;-55
2022/04/13 08:13:26;;;;;;;19.88;7.30;;;;;;;;;;6168538;23;20076;-52
2022/04/13 08:15:51;;;;;;;17.10;6.72;;;;;;;;;;6170021;23;20025;-52
2022/04/13 08:18:16;;;;;;;15.02;7.53;;;;;;;;;;6142823;23;20020;-53
2022/04/13 08:20:42;;;;;;;16.60;7.55;;;;;;;;;;6170215;23;20013;-50
2022/04/13 08:23:07;;;;;;;19.27;6.63;;;;;;;;;;6165232;23;20025;-52
2022/04/13 08:25:32;;;;;;;19.25;6.85;;;;;;;;;;6166655;23;20028;-52
2022/04/13 08:27:57;;;;;;;21.67;7.50;;;;;;;;;;6173027;23;20036;-51
2022/04/13 08:30:25;;;;;;;21.83;7.22;;;;;;;;;;6171936;23;20013;-53
2022/04/13 08:32:50;;;;;;;22.77;7.85;;;;;;;;;;6173788;23;20506;-52
2022/04/13 08:35:15;;;;;;;21.83;9.88;;;;;;;;;;6171303;23;20017;-55
2022/04/13 08:37:41;;;;;;;19.00;6.10;;;;;;;;;;6174592;23;20005;-54
2022/04/13 08:40:06;;;;;;;19.63;6.10;;;;;;;;;;6173361;23;20048;-52
2022/04/13 08:42:38;;;;;;;20.58;7.03;;;;;;;;;;6174731;23;20013;-52
2022/04/13 08:45:04;;;;;;;14.32;7.22;;;;;;;;;;6174361;23;20013;-54
2022/04/13 08:47:31;;;;;;;22.00;7.32;;;;;;;;;;6174997;23;20055;-54
2022/04/13 08:49:56;;;;;;;12.48;6.53;;;;;;;;;;6172686;23;20029;-51
2022/04/13 08:52:28;;;;;;;18.25;6.90;;;;;;;;;;6168088;23;20017;-53
2022/04/13 08:54:54;;;;;;;11.68;5.97;;;;;;;;;;6166953;23;20024;-52
2022/04/13 08:57:21;;;;;;;14.38;6.78;;;;;;;;;;6171051;23;20017;-51
2022/04/13 08:59:53;;;;;;;12.43;5.05;;;;;;;;;;6171635;23;20013;-52
2022/04/13 09:02:30;;;;;;;15.48;5.40;;;;;;;;;;6172653;23;20005;-51
2022/04/13 09:04:59;;;;;;;13.48;5.18;;;;;;;;;;6148247;23;20490;-53
2022/04/13 09:07:27;;;;;;;9.48;4.68;;;;;;;;;;6171443;23;20084;-52
2022/04/13 09:09:53;;;;;;;15.77;4.93;;;;;;;;;;6176865;23;20044;-51
2022/04/13 09:12:19;;;;;;;14.95;4.63;;;;;;;;;;6175359;23;20872;-53
2022/04/13 09:14:45;;;;;;;16.50;4.40;;;;;;;;;;6174838;23;20032;-50
2022/04/13 09:17:10;;;;;;;11.50;5.30;;;;;;;;;;6176416;23;20017;-54
2022/04/13 09:19:36;;;;;;;14.70;5.63;;;;;;;;;;6176701;23;20005;-51
2022/04/13 09:22:02;;;;;;;10.70;4.15;;;;;;;;;;6166788;23;20080;-55
2022/04/13 09:24:27;;;;;;;8.02;3.20;;;;;;;;;;6169019;23;20427;-53
2022/04/13 09:26:53;;;;;;;8.55;3.95;;;;;;;;;;6151156;23;20484;-54
2022/04/13 09:29:18;;;;;;;14.15;5.32;;;;;;;;;;6141475;23;20434;-52
2022/04/13 09:31:44;;;;;;;16.52;4.13;;;;;;;;;;6174007;23;20031;-53
2022/04/13 09:34:10;;;;;;;14.80;4.45;;;;;;;;;;6176054;23;20013;-54
2022/04/13 09:36:35;;;;;;;11.52;4.40;;;;;;;;;;6176313;23;20039;-54
2022/04/13 09:39:00;;;;;;;16.48;4.70;;;;;;;;;;6174989;23;20013;-53
2022/04/13 09:41:36;;;;;;;18.52;4.65;;;;;;;;;;6169392;23;20507;-55
2022/04/13 09:44:02;;;;;;;10.63;4.40;;;;;;;;;;6169833;23;20005;-53
2022/04/13 09:46:30;;;;;;;15.25;3.47;;;;;;;;;;6174985;23;20029;-53
2022/04/13 09:49:12;;;;;;;10.07;4.05;;;;;;;;;;6174076;23;20056;-51
2022/04/13 09:51:38;;;;;;;11.65;3.88;;;;;;;;;;6176917;23;20016;-54
2022/04/13 09:54:05;;;;;;;13.30;4.68;;;;;;;;;;6175844;23;20005;-53
2022/04/13 09:56:30;;;;;;;7.80;4.13;;;;;;;;;;6176779;23;20012;-52
2022/04/13 09:58:55;;;;;;;13.70;4.53;;;;;;;;;;6178673;23;20013;-52
2022/04/13 10:01:21;;;;;;;8.80;3.75;;;;;;;;;;6149875;23;20013;-51
2022/04/13 10:03:52;;;;;;;10.07;4.22;;;;;;;;;;6178293;23;20017;-51
2022/04/13 10:06:25;;;;;;;14.32;4.60;;;;;;;;;;6174874;23;20025;-49
2022/04/13 10:08:57;;;;;;;13.10;5.45;;;;;;;;;;6178338;23;20494;-50
2022/04/13 10:11:22;;;;;;;18.73;5.32;;;;;;;;;;6176523;23;20311;-51
2022/04/13 10:13:47;;;;;;;11.60;4.28;;;;;;;;;;6177826;23;20618;-50
2022/04/13 10:16:14;;;;;;;8.80;4.65;;;;;;;;;;6176700;23;20424;-53
2022/04/13 10:18:59;;;;;;;9.15;3.45;;;;;;;;;;6177008;23;20481;-53
2022/04/13 10:21:40;;;;;;;10.25;4.05;;;;;;;;;;6176377;23;20009;-55
2022/04/13 10:24:06;;;;;;;11.38;3.20;;;;;;;;;;6170981;23;20059;-53
2022/04/13 10:26:31;;;;;;;9.20;4.18;;;;;;;;;;6171579;23;20107;-53
2022/04/13 10:28:56;;;;;;;9.20;3.65;;;;;;;;;;6175312;23;20009;-54
2022/04/13 10:31:22;;;;;;;15.27;4.63;;;;;;;;;;6173670;23;20835;-53
2022/04/13 10:33:48;;;;;;;7.75;3.92;;;;;;;;;;6175885;23;20005;-51
2022/04/13 10:36:17;;;;;;;9.07;3.33;;;;;;;;;;6166603;23;20358;-50
2022/04/13 10:38:43;;;;;;;7.55;3.00;;;;;;;;;;6166832;23;20012;-50
2022/04/13 10:41:13;;;;;;;7.72;2.67;;;;;;;;;;6169489;23;20024;-55
2022/04/13 10:43:39;;;;;;;6.57;2.78;;;;;;;;;;6175161;23;20057;-53
2022/04/13 10:46:05;;;;;;;7.70;2.78;;;;;;;;;;6172877;23;20035;-54
2022/04/13 10:48:32;;;;;;;6.47;2.22;;;;;;;;;;6172913;23;20015;-50
2022/04/13 10:51:02;;;;;;;8.57;2.65;;;;;;;;;;6168466;23;20015;-51
2022/04/13 10:53:28;;;;;;;5.68;2.38;;;;;;;;;;6174652;23;20028;-50
2022/04/13 10:55:53;;;;;;;4.75;2.25;;;;;;;;;;6173379;23;20013;-51
2022/04/13 10:58:24;;;;;;;8.98;2.65;;;;;;;;;;6175002;23;20022;-53
2022/04/13 11:00:52;;;;;;;11.77;3.15;;;;;;;;;;6174266;23;20017;-51
2022/04/13 11:03:17;;;;;;;15.23;5.10;;;;;;;;;;6168096;23;20012;-51
2022/04/13 11:05:43;;;;;;;10.50;3.10;;;;;;;;;;6146551;23;20017;-52
2022/04/13 11:08:14;;;;;;;6.75;2.35;;;;;;;;;;6173872;23;20010;-53
2022/04/13 11:10:42;;;;;;;11.82;3.65;;;;;;;;;;6164695;23;20009;-52
2022/04/13 11:13:07;;;;;;;10.93;2.95;;;;;;;;;;6172477;23;20013;-51
2022/04/13 11:15:36;;;;;;;9.82;4.82;;;;;;;;;;6172892;23;20085;-50
2022/04/13 11:18:06;;;;;;;9.70;4.05;;;;;;;;;;6177138;23;20012;-50
2022/04/13 11:20:32;;;;;;;11.38;4.40;;;;;;;;;;6167559;23;20021;-50
2022/04/13 11:23:07;;;;;;;10.45;4.15;;;;;;;;;;6172198;23;20005;-52
2022/04/13 11:25:42;;;;;;;17.65;5.57;;;;;;;;;;6169426;23;20064;-53
2022/04/13 11:28:07;;;;;;;12.52;5.80;;;;;;;;;;6169308;23;20053;-54
2022/04/13 11:30:52;;;;;;;18.27;5.72;;;;;;;;;;6171244;23;20016;-53
2022/04/13 11:33:18;;;;;;;12.68;4.57;;;;;;;;;;6166102;23;20067;-54
2022/04/13 11:35:45;;;;;;;14.13;4.70;;;;;;;;;;6145907;23;20009;-53
2022/04/13 11:38:10;;;;;;;8.00;4.15;;;;;;;;;;6170178;23;20390;-55
2022/04/13 11:40:55;;;;;;;15.73;5.07;;;;;;;;;;6143732;23;20024;-53
2022/04/13 11:43:21;;;;;;;15.68;4.47;;;;;;;;;;6168586;23;20495;-54
2022/04/13 11:45:52;;;;;;;12.05;3.83;;;;;;;;;;6170887;23;20012;-54
2022/04/13 11:48:31;;;;;;;14.07;4.72;;;;;;;;;;6165865;23;20005;-52
2022/04/13 11:51:16;;;;;;;6.10;4.33;;;;;;;;;;6172839;23;20018;-54
2022/04/13 11:53:54;;;;;;;13.95;4.75;;;;;;;;;;6170734;23;20016;-54
2022/04/13 11:56:38;;;;;;;10.90;4.25;;;;;;;;;;6172930;23;20032;-52
2022/04/13 11:59:04;;;;;;;12.35;4.10;;;;;;;;;;6176280;23;20036;-55
2022/04/13 12:01:31;;;;;;;8.82;4.28;;;;;;;;;;6173256;23;20100;-53
2022/04/13 12:03:58;;;;;;;10.77;3.83;;;;;;;;;;6175969;23;20069;-53
2022/04/13 12:06:25;;;;;;;8.32;3.20;;;;;;;;;;6169433;23;20499;-53
2022/04/13 12:08:55;;;;;;;7.65;3.10;;;;;;;;;;6171410;23;20052;-51
2022/04/13 12:11:21;;;;;;;10.85;3.35;;;;;;;;;;6164923;23;20032;-51
2022/04/13 12:13:56;;;;;;;9.23;3.35;;;;;;;;;;6173769;23;20013;-51
2022/04/13 12:16:29;;;;;;;9.48;3.45;;;;;;;;;;6174963;23;20353;-55
2022/04/13 12:18:59;;;;;;;7.45;2.88;;;;;;;;;;6148708;23;20017;-51
2022/04/13 12:21:26;;;;;;;7.00;3.50;;;;;;;;;;6175083;23;20068;-53
2022/04/13 12:23:53;;;;;;;10.27;3.35;;;;;;;;;;6171513;23;20019;-54
2022/04/13 12:26:28;;;;;;;11.68;4.40;;;;;;;;;;6170327;23;20016;-52
2022/04/13 12:28:54;;;;;;;13.13;3.63;;;;;;;;;;6167143;23;20009;-52
2022/04/13 12:31:19;;;;;;;9.20;3.70;;;;;;;;;;6165558;23;20021;-50
2022/04/13 12:33:44;;;;;;;8.60;3.05;;;;;;;;;;6174241;23;20073;-54
2022/04/13 12:36:10;;;;;;;14.88;4.22;;;;;;;;;;6170479;23;20001;-53
2022/04/13 12:38:43;;;;;;;9.95;2.60;;;;;;;;;;6173799;23;20455;-55
2022/04/13 12:41:15;;;;;;;13.60;4.60;;;;;;;;;;6171720;23;20009;-48
2022/04/13 12:44:03;;;;;;;9.20;2.72;;;;;;;;;;6162085;23;20013;-51
2022/04/13 12:46:32;;;;;;;16.38;4.30;;;;;;;;;;6166618;23;20021;-52
2022/04/13 12:49:01;;;;;;;9.15;3.00;;;;;;;;;;6172581;23;20479;-50
2022/04/13 12:51:26;;;;;;;;;;;;;;;;;;6174393;23;20032;-54
2022/04/13 12:53:53;;;;;;;12.45;4.43;;;;;;;;;;6172384;23;19908;-52
2022/04/13 12:56:19;;;;;;;11.98;3.70;;;;;;;;;;6147638;23;20005;-51
2022/04/13 12:58:45;;;;;;;9.63;3.67;;;;;;;;;;6173065;23;20020;-53
2022/04/13 13:01:21;;;;;;;9.00;3.40;;;;;;;;;;6174259;23;20025;-54
2022/04/13 13:03:46;;;;;;;8.00;2.67;;;;;;;;;;6175102;23;20005;-51
2022/04/13 13:06:12;;;;;;;10.23;3.55;;;;;;;;;;6173528;23;20040;-53
2022/04/13 13:08:50;;;;;;;6.85;3.15;;;;;;;;;;6174692;23;20096;-53
2022/04/13 13:11:16;;;;;;;9.10;2.95;;;;;;;;;;6172516;23;20088;-54
2022/04/13 13:13:42;;;;;;;8.25;3.30;;;;;;;;;;6175129;23;20064;-55
2022/04/13 13:16:07;;;;;;;8.35;2.83;;;;;;;;;;6173768;23;20021;-54
2022/04/13 13:18:33;;;;;;;13.85;3.63;;;;;;;;;;6173755;23;20270;-52
2022/04/13 13:20:59;;;;;;;10.02;3.08;;;;;;;;;;6174442;23;20013;-51
2022/04/13 13:23:25;;;;;;;10.18;3.40;;;;;;;;;;6172007;23;20099;-52
2022/04/13 13:25:51;;;;;;;10.32;2.33;;;;;;;;;;6174914;23;20006;-51
2022/04/13 13:28:17;;;;;;;7.88;2.97;;;;;;;;;;6172153;23;20065;-56
2022/04/13 13:30:45;;;;;;;12.77;2.70;;;;;;;;;;6174875;23;20020;-50
2022/04/13 13:33:11;;;;;;;10.65;2.85;;;;;;;;;;6174194;23;20013;-49
2022/04/13 13:35:36;;;;;;;10.75;3.75;;;;;;;;;;6173429;23;20029;-51
2022/04/13 13:38:10;;;;;;;6.32;2.63;;;;;;;;;;6174919;23;20016;-53
2022/04/13 13:40:36;;;;;;;7.82;2.70;;;;;;;;;;6174203;23;20024;-51
2022/04/13 13:43:08;;;;;;;9.70;2.55;;;;;;;;;;6173350;23;20005;-53
2022/04/13 13:45:35;;;;;;;8.35;2.65;;;;;;;;;;6172136;23;20013;-56
2022/04/13 13:48:01;;;;;;;7.45;2.58;;;;;;;;;;6175511;23;20240;-53
2022/04/13 13:50:30;;;;;;;10.68;3.05;;;;;;;;;;6168452;23;20647;-51
2022/04/13 13:52:55;;;;;;;6.60;3.15;;;;;;;;;;6174943;23;20005;-47
2022/04/13 13:55:24;;;;;;;9.90;3.10;;;;;;;;;;6174100;23;20024;-52
2022/04/13 13:57:50;;;;;;;5.28;2.60;;;;;;;;;;6174875;23;20028;-52
2022/04/13 14:00:15;;;;;;;6.07;2.40;;;;;;;;;;6175518;23;20013;-53
2022/04/13 14:02:41;;;;;;;5.03;2.35;;;;;;;;;;6175300;23;20208;-51
2022/04/13 14:05:06;;;;;;;4.57;2.10;;;;;;;;;;6175935;23;20013;-48
2022/04/13 14:07:32;;;;;;;8.50;2.78;;;;;;;;;;6174118;23;20025;-51
2022/04/13 14:09:57;;;;;;;5.05;2.03;;;;;;;;;;6176888;23;20005;-52
2022/04/13 14:12:23;;;;;;;4.35;1.75;;;;;;;;;;6174181;23;20020;-53
2022/04/13 14:14:48;;;;;;;3.75;2.00;;;;;;;;;;6176150;23;20048;-52
2022/04/13 14:17:13;;;;;;;4.82;2.53;;;;;;;;;;6174980;23;20013;-51
2022/04/13 14:19:38;;;;;;;3.95;1.27;;;;;;;;;;6175087;23;20013;-53
2022/04/13 14:22:04;;;;;;;2.13;1.15;;;;;;;;;;6174505;23;20188;-54
2022/04/13 14:24:29;;;;;;;3.92;1.20;;;;;;;;;;6175825;23;20024;-50